Time;durP1;ratioP1;P1;durP2;ratioP2;P2;SDS_P1;SDS_P2;PMS_P1;PMS_P2;Temp;Humidity;BMP_temperature;BMP_pressure;BME280_temperature;BME280_humidity;BME280_pressure;Samples;Min_cycle;Max_cycle;Signal;HPM_P1;HPM_P2
2022/02/21 00:00:29;;;;;;;4.30;2.70;;;;;;;6.66;82.33;98745.95;89402;1281;87847;-65
2022/02/21 00:02:52;;;;;;;4.00;2.30;;;;;;;6.66;82.50;98740.64;89415;1280;95534;-65
2022/02/21 00:04:57;;;;;;;4.80;2.50;;;;;;;6.64;82.28;98735.94;89406;1279;80504;-76
2022/02/21 00:07:04;;;;;;;3.60;2.30;;;;;;;6.67;82.14;98736.84;89403;1279;83091;-75
2022/02/21 00:09:09;;;;;;;3.90;2.40;;;;;;;6.69;82.19;98734.12;89318;1281;99071;-73
2022/02/21 00:11:15;;;;;;;4.60;2.60;;;;;;;6.71;82.04;98730.03;89180;1281;87466;-77
2022/02/21 00:13:21;;;;;;;7.30;3.30;;;;;;;6.73;81.96;98723.64;89373;1280;93461;-74
2022/02/21 00:15:30;;;;;;;3.80;2.00;;;;;;;6.70;81.96;98721.73;89390;1280;82823;-74
2022/02/21 00:17:37;;;;;;;4.30;2.20;;;;;;;6.69;81.66;98720.30;89392;1279;81952;-75
2022/02/21 00:19:43;;;;;;;4.70;2.50;;;;;;;6.65;81.81;98721.45;89388;1279;97707;-74
2022/02/21 00:21:49;;;;;;;3.70;2.10;;;;;;;6.63;81.70;98723.26;89411;1280;86843;-75
2022/02/21 00:23:55;;;;;;;3.50;2.40;;;;;;;6.60;81.86;98717.69;89373;1280;95656;-74
2022/02/21 00:26:04;;;;;;;5.30;2.40;;;;;;;6.63;81.79;98712.55;89373;1279;80136;-74
2022/02/21 00:28:10;;;;;;;4.40;2.30;;;;;;;6.66;81.78;98708.40;89404;1280;83134;-75
2022/02/21 00:30:18;;;;;;;4.80;2.70;;;;;;;6.71;81.70;98700.02;89395;1280;100290;-64
2022/02/21 00:32:27;;;;;;;4.20;2.00;;;;;;;6.76;81.68;98694.83;89399;1279;89316;-65
2022/02/21 00:34:33;;;;;;;4.30;1.90;;;;;;;6.77;81.79;98691.88;89305;1280;95682;-65
2022/02/21 00:36:38;;;;;;;6.30;2.30;;;;;;;6.81;81.56;98686.07;89394;1279;80342;-65
2022/02/21 00:38:47;;;;;;;6.10;2.20;;;;;;;6.87;81.36;98683.83;89393;1279;82606;-75
2022/02/21 00:40:56;;;;;;;3.90;1.90;;;;;;;6.90;81.40;98681.27;89383;1280;99639;-75
2022/02/21 00:43:05;;;;;;;4.50;2.10;;;;;;;6.93;81.33;98673.02;89399;1279;89185;-75
2022/02/21 00:45:14;;;;;;;4.30;2.30;;;;;;;6.97;81.25;98669.40;89386;1279;95652;-75
2022/02/21 00:47:19;;;;;;;4.70;2.30;;;;;;;6.99;80.97;98668.21;89360;1279;82348;-74
2022/02/21 00:49:29;;;;;;;4.30;2.20;;;;;;;7.01;81.05;98661.89;89410;1280;80314;-75
2022/02/21 00:51:38;;;;;;;3.60;2.40;;;;;;;7.02;81.02;98656.89;89390;1279;100183;-76
2022/02/21 00:53:44;;;;;;;4.70;2.30;;;;;;;7.05;81.07;98649.86;89395;1279;88524;-74
2022/02/21 00:55:50;;;;;;;3.70;2.00;;;;;;;7.08;80.72;98640.77;89392;1280;95316;-75
2022/02/21 00:57:58;;;;;;;4.00;2.20;;;;;;;7.12;80.72;98636.59;89385;1280;82219;-74
2022/02/21 01:00:06;;;;;;;3.70;2.00;;;;;;;7.16;80.58;98627.05;89379;1280;80650;-74
2022/02/21 01:02:12;;;;;;;3.50;2.10;;;;;;;7.19;80.36;98625.54;89395;1279;99936;-74
2022/02/21 01:04:21;;;;;;;2.90;1.80;;;;;;;7.21;80.39;98623.43;89412;1279;89410;-64
2022/02/21 01:06:26;;;;;;;3.60;2.00;;;;;;;7.21;80.27;98618.60;89368;1279;96106;-65
2022/02/21 01:08:36;;;;;;;3.40;1.70;;;;;;;7.23;80.35;98618.34;89153;1281;81881;-74
2022/02/21 01:10:42;;;;;;;4.50;2.10;;;;;;;7.26;80.05;98611.34;89374;1279;80995;-74
2022/02/21 01:12:48;;;;;;;4.60;1.90;;;;;;;7.31;80.08;98608.70;89397;1279;98098;-75
2022/02/21 01:14:53;;;;;;;4.30;1.80;;;;;;;7.32;79.85;98600.84;89395;1280;89137;-75
2022/02/21 01:16:59;;;;;;;4.50;1.90;;;;;;;7.31;80.01;98593.48;89385;1278;93079;-75
2022/02/21 01:19:05;;;;;;;4.20;2.10;;;;;;;7.34;79.97;98590.54;89393;1279;80716;-66
2022/02/21 01:21:11;;;;;;;3.00;1.70;;;;;;;7.36;79.73;98583.33;89314;1279;82159;-65
2022/02/21 01:23:20;;;;;;;4.10;2.00;;;;;;;7.39;79.67;98574.61;89361;1279;98321;-65
2022/02/21 01:25:25;;;;;;;2.50;1.60;;;;;;;7.42;79.55;98575.26;89399;1279;87737;-66
2022/02/21 01:27:31;;;;;;;2.90;1.70;;;;;;;7.44;79.46;98567.47;89379;1278;93962;-65
2022/02/21 01:29:37;;;;;;;4.90;2.00;;;;;;;7.46;79.32;98564.98;89299;1279;81480;-74
2022/02/21 01:31:42;;;;;;;2.90;1.80;;;;;;;7.48;79.39;98559.06;89392;1279;81331;-74
2022/02/21 01:33:51;;;;;;;3.20;2.00;;;;;;;7.52;79.28;98553.42;89301;1279;99805;-74
2022/02/21 01:35:56;;;;;;;4.10;1.70;;;;;;;7.52;79.27;98546.36;89365;1279;89634;-74
2022/02/21 01:38:03;;;;;;;4.30;1.80;;;;;;;7.54;79.28;98547.88;89198;1281;95613;-75
2022/02/21 01:40:11;;;;;;;3.00;1.60;;;;;;;7.54;79.33;98540.02;89230;1279;80854;-64
2022/02/21 01:42:19;;;;;;;2.80;1.70;;;;;;;7.54;79.42;98532.33;89384;1279;83680;-64
2022/02/21 01:44:38;;;;;;;3.50;1.60;;;;;;;7.53;79.48;98531.14;89382;1279;99090;-75
2022/02/21 01:46:46;;;;;;;3.30;1.50;;;;;;;7.49;79.76;98523.39;89385;1279;88489;-75
2022/02/21 01:48:52;;;;;;;2.10;1.50;;;;;;;7.48;79.62;98519.02;89352;1279;94191;-75
2022/02/21 01:50:58;;;;;;;4.80;2.10;;;;;;;7.49;79.83;98512.96;89347;1279;79971;-74
2022/02/21 01:53:07;;;;;;;2.50;1.60;;;;;;;7.47;79.80;98513.34;89390;1279;83965;-76
2022/02/21 01:55:16;;;;;;;3.70;1.70;;;;;;;7.48;79.92;98509.50;89401;1279;99463;-65
2022/02/21 01:57:21;;;;;;;3.60;2.00;;;;;;;7.48;79.82;98506.15;89366;1279;88019;-65
2022/02/21 01:59:27;;;;;;;3.40;2.00;;;;;;;7.45;80.02;98506.14;89382;1279;95740;-65
2022/02/21 02:01:32;;;;;;;3.50;2.00;;;;;;;7.45;79.88;98497.38;89384;1279;80624;-65
2022/02/21 02:03:38;;;;;;;2.90;1.70;;;;;;;7.45;80.15;98496.51;89371;1279;83891;-74
2022/02/21 02:05:44;;;;;;;3.70;1.70;;;;;;;7.43;80.16;98478.30;89363;1279;98579;-74
2022/02/21 02:07:53;;;;;;;4.40;2.30;;;;;;;7.43;80.18;98476.52;89401;1279;89176;-75
2022/02/21 02:09:59;;;;;;;3.10;1.60;;;;;;;7.40;80.35;98466.66;89199;1281;95787;-66
2022/02/21 02:12:07;;;;;;;4.40;2.30;;;;;;;7.33;80.46;98467.78;89128;1280;81885;-65
2022/02/21 02:14:30;;;;;;;3.20;1.50;;;;;;;7.32;80.80;98460.09;89353;1279;81011;-74
2022/02/21 02:16:38;;;;;;;4.30;1.90;;;;;;;7.31;81.06;98452.55;89367;1279;100180;-74
2022/02/21 02:18:47;;;;;;;4.00;1.90;;;;;;;7.30;81.09;98457.34;89395;1279;89010;-74
2022/02/21 02:20:52;;;;;;;2.80;1.60;;;;;;;7.29;81.12;98448.88;89373;1279;94168;-75
2022/02/21 02:23:02;;;;;;;3.90;1.70;;;;;;;7.28;81.14;98442.77;89382;1279;80232;-74
2022/02/21 02:25:10;;;;;;;3.60;1.70;;;;;;;7.24;81.29;98437.42;89408;1279;83481;-75
2022/02/21 02:27:20;;;;;;;3.60;1.60;;;;;;;7.22;81.51;98434.09;89361;1279;99513;-73
2022/02/21 02:29:26;;;;;;;3.10;1.80;;;;;;;7.19;81.41;98427.20;89415;1279;88834;-74
2022/02/21 02:31:31;;;;;;;3.50;1.40;;;;;;;7.20;81.56;98424.09;89379;1279;94492;-75
2022/02/21 02:33:37;;;;;;;3.70;1.80;;;;;;;7.20;81.58;98417.04;89381;1279;80394;-77
2022/02/21 02:35:43;;;;;;;4.00;1.60;;;;;;;7.18;82.10;98413.00;89412;1279;81137;-79
2022/02/21 02:37:48;;;;;;;3.70;1.70;;;;;;;7.16;82.06;98413.27;89390;1279;99995;-78
2022/02/21 02:39:54;;;;;;;2.90;1.50;;;;;;;7.13;82.17;98404.20;89412;1279;87635;-78
2022/02/21 02:42:04;;;;;;;5.30;1.60;;;;;;;7.08;82.50;98396.86;89335;1279;94487;-79
2022/02/21 02:44:09;;;;;;;2.80;1.60;;;;;;;7.05;82.73;98391.77;89393;1279;78938;-78
2022/02/21 02:46:18;;;;;;;3.20;1.40;;;;;;;7.05;82.68;98385.98;89401;1279;82250;-78
2022/02/21 02:48:26;;;;;;;2.50;1.50;;;;;;;7.06;82.85;98385.65;89374;1279;99946;-80
2022/02/21 02:50:32;;;;;;;3.20;1.50;;;;;;;7.05;82.54;98383.67;89427;1279;87690;-77
2022/02/21 02:52:38;;;;;;;2.60;1.40;;;;;;;7.05;82.74;98381.52;89373;1279;92548;-76
2022/02/21 02:54:43;;;;;;;3.90;1.80;;;;;;;7.02;82.82;98375.31;89382;1277;79675;-76
2022/02/21 02:56:48;;;;;;;3.10;1.70;;;;;;;7.01;82.87;98373.45;89291;1279;82598;-76
2022/02/21 02:58:54;;;;;;;4.20;1.70;;;;;;;7.02;82.87;98373.20;89589;1277;100218;-68
2022/02/21 03:00:59;;;;;;;3.50;1.40;;;;;;;7.02;82.82;98365.15;89424;1277;87276;-75
2022/02/21 03:03:06;;;;;;;2.80;1.40;;;;;;;7.04;82.98;98360.67;89376;1279;95034;-67
2022/02/21 03:05:12;;;;;;;2.80;1.40;;;;;;;7.02;83.40;98357.75;89378;1277;84416;-76
2022/02/21 03:07:17;;;;;;;2.60;1.30;;;;;;;7.00;83.43;98351.54;89391;1277;81351;-75
2022/02/21 03:09:23;;;;;;;4.10;1.70;;;;;;;6.99;83.41;98346.84;89367;1279;100448;-67
2022/02/21 03:11:32;;;;;;;2.50;1.30;;;;;;;6.98;83.35;98340.89;89592;1277;88669;-67
2022/02/21 03:13:37;;;;;;;2.60;1.30;;;;;;;6.93;83.80;98338.83;89558;1277;95939;-76
2022/02/21 03:15:46;;;;;;;3.50;1.30;;;;;;;6.93;83.69;98335.98;89539;1277;80404;-76
2022/02/21 03:17:54;;;;;;;2.70;1.40;;;;;;;6.95;83.86;98333.23;89537;1277;84000;-75
2022/02/21 03:20:00;;;;;;;3.00;1.70;;;;;;;6.97;83.63;98329.49;89399;1279;98670;-68
2022/02/21 03:22:08;;;;;;;2.90;1.50;;;;;;;6.95;83.75;98320.73;89397;1279;87256;-67
2022/02/21 03:24:17;;;;;;;1.90;1.30;;;;;;;6.94;83.95;98312.48;89379;1279;95562;-67
2022/02/21 03:26:23;;;;;;;3.20;1.50;;;;;;;6.95;83.44;98313.16;89378;1279;82015;-67
2022/02/21 03:28:32;;;;;;;2.30;1.40;;;;;;;6.93;83.75;98303.09;89376;1279;81152;-68
2022/02/21 03:30:38;;;;;;;2.60;1.40;;;;;;;6.90;83.77;98300.44;89358;1279;99987;-76
2022/02/21 03:32:44;;;;;;;3.40;1.40;;;;;;;6.92;83.91;98302.33;89397;1279;87685;-76
2022/02/21 03:34:50;;;;;;;4.30;1.60;;;;;;;6.93;84.06;98295.05;89385;1279;96265;-75
2022/02/21 03:36:59;;;;;;;2.50;1.20;;;;;;;6.91;84.07;98292.50;89170;1279;287356;-75
2022/02/21 03:39:08;;;;;;;2.80;1.50;;;;;;;6.92;83.95;98280.15;89406;1279;82094;-75
2022/02/21 03:41:13;;;;;;;2.60;1.20;;;;;;;6.91;84.10;98269.96;89390;1279;97232;-77
2022/02/21 03:43:21;;;;;;;3.10;1.60;;;;;;;6.90;84.16;98267.91;89410;1279;88571;-75
2022/02/21 03:45:27;;;;;;;2.80;1.40;;;;;;;6.89;84.13;98263.83;89388;1279;94325;-78
2022/02/21 03:47:33;;;;;;;2.60;1.40;;;;;;;6.91;84.09;98254.93;89376;1279;79280;-78
2022/02/21 03:49:39;;;;;;;2.00;1.40;;;;;;;6.91;84.12;98246.55;89402;1279;80484;-78
2022/02/21 03:51:45;;;;;;;2.50;1.40;;;;;;;6.89;84.17;98243.77;89420;1279;97442;-79
2022/02/21 03:53:51;;;;;;;2.30;1.20;;;;;;;6.90;84.14;98240.19;89381;1279;89342;-66
2022/02/21 03:55:57;;;;;;;2.80;1.30;;;;;;;6.90;84.09;98233.71;89356;1279;96024;-67
2022/02/21 03:58:05;;;;;;;2.30;1.30;;;;;;;6.90;84.39;98226.94;89299;1280;80423;-68
2022/02/21 04:00:18;;;;;;;2.70;1.30;;;;;;;6.89;84.56;98226.05;89442;1279;82142;-76
2022/02/21 04:02:27;;;;;;;2.60;1.30;;;;;;;6.91;84.20;98217.73;89388;1279;98137;-77
2022/02/21 04:04:36;;;;;;;2.80;1.20;;;;;;;6.90;84.49;98215.50;89348;1279;91317;-66
2022/02/21 04:06:42;;;;;;;2.20;1.30;;;;;;;6.88;84.66;98215.94;89355;1279;95274;-66
2022/02/21 04:08:48;;;;;;;2.00;1.40;;;;;;;6.86;84.87;98207.33;89379;1279;80480;-77
2022/02/21 04:10:53;;;;;;;3.80;1.20;;;;;;;6.85;84.90;98200.40;89415;1279;80717;-76
2022/02/21 04:12:59;;;;;;;2.80;1.40;;;;;;;6.83;85.02;98189.05;89389;1279;98779;-77
2022/02/21 04:15:11;;;;;;;3.10;1.40;;;;;;;6.85;84.91;98179.88;89426;1279;88884;-77
2022/02/21 04:17:19;;;;;;;3.30;1.40;;;;;;;6.89;84.80;98175.44;89386;1279;95959;-77
2022/02/21 04:19:28;;;;;;;1.60;1.00;;;;;;;6.88;84.54;98163.91;89424;1278;78984;-78
2022/02/21 04:21:37;;;;;;;3.20;1.10;;;;;;;6.88;84.86;98160.45;89430;1279;79613;-77
2022/02/21 04:23:43;;;;;;;3.50;1.20;;;;;;;6.90;84.75;98154.89;89407;1279;98859;-66
2022/02/21 04:25:51;;;;;;;3.40;1.10;;;;;;;6.89;84.67;98145.36;89408;1279;87605;-66
2022/02/21 04:27:57;;;;;;;3.10;1.30;;;;;;;6.89;84.99;98137.60;89391;1279;94706;-66
2022/02/21 04:30:03;;;;;;;3.80;1.30;;;;;;;6.90;84.94;98132.36;89348;1279;80846;-66
2022/02/21 04:32:12;;;;;;;3.50;1.50;;;;;;;6.88;84.92;98123.82;89388;1279;82497;-66
2022/02/21 04:34:18;;;;;;;2.50;1.40;;;;;;;6.87;85.06;98116.11;89387;1279;100034;-67
2022/02/21 04:36:23;;;;;;;2.40;1.30;;;;;;;6.86;85.06;98115.64;89423;1279;88672;-67
2022/02/21 04:38:29;;;;;;;3.40;1.90;;;;;;;6.88;84.94;98120.02;89406;1279;95270;-69
2022/02/21 04:40:35;;;;;;;2.60;1.30;;;;;;;6.88;85.22;98128.90;89435;1279;79987;-77
2022/02/21 04:42:40;;;;;;;2.70;1.40;;;;;;;6.85;85.34;98108.26;89425;1279;83245;-75
2022/02/21 04:44:46;;;;;;;2.20;1.40;;;;;;;6.86;85.23;98119.73;89425;1277;99074;-74
2022/02/21 04:46:55;;;;;;;3.20;1.30;;;;;;;6.89;85.06;98133.84;89530;1277;89038;-74
2022/02/21 04:49:01;;;;;;;3.90;1.40;;;;;;;6.95;85.02;98133.17;89540;1277;95151;-73
2022/02/21 04:51:06;;;;;;;2.40;1.30;;;;;;;6.96;84.98;98125.68;89544;1277;81349;-73
2022/02/21 04:53:12;;;;;;;2.50;1.30;;;;;;;6.93;85.33;98118.07;89537;1277;82246;-73
2022/02/21 04:55:21;;;;;;;1.90;1.10;;;;;;;6.94;85.11;98115.09;89531;1277;99972;-74
2022/02/21 04:57:26;;;;;;;1.60;1.00;;;;;;;6.95;85.44;98130.52;89537;1277;89860;-75
2022/02/21 04:59:32;;;;;;;2.20;1.10;;;;;;;6.95;85.25;98122.52;89524;1277;94847;-64
2022/02/21 05:01:37;;;;;;;3.30;1.30;;;;;;;6.95;85.39;98119.17;89523;1277;79836;-63
2022/02/21 05:03:46;;;;;;;2.40;1.20;;;;;;;6.94;85.29;98124.75;89541;1277;80326;-75
2022/02/21 05:05:55;;;;;;;3.00;1.40;;;;;;;6.95;85.34;98115.61;89322;1279;100901;-77
2022/02/21 05:08:00;;;;;;;2.10;1.50;;;;;;;6.97;85.39;98113.04;89550;1277;87344;-78
2022/02/21 05:10:10;;;;;;;2.20;1.30;;;;;;;6.96;85.43;98116.31;89516;1277;95388;-67
2022/02/21 05:12:19;;;;;;;3.00;1.60;;;;;;;6.98;85.41;98105.30;89510;1277;80926;-68
2022/02/21 05:14:24;;;;;;;4.20;2.30;;;;;;;6.97;85.34;98111.17;89532;1277;82179;-76
2022/02/21 05:16:30;;;;;;;2.30;1.30;;;;;;;6.97;85.50;98111.19;89529;1277;98020;-79
2022/02/21 05:18:39;;;;;;;2.30;1.10;;;;;;;6.94;85.56;98093.00;89525;1277;88362;-73
2022/02/21 05:20:44;;;;;;;3.00;1.50;;;;;;;6.92;86.09;98067.84;89521;1277;95557;-74
2022/02/21 05:22:50;;;;;;;4.10;1.70;;;;;;;6.86;85.99;98084.95;89546;1277;79221;-75
2022/02/21 05:24:59;;;;;;;2.70;1.40;;;;;;;6.86;85.95;98091.23;89543;1277;82051;-76
2022/02/21 05:27:05;;;;;;;2.20;1.30;;;;;;;6.85;86.12;98080.83;89541;1277;100292;-75
2022/02/21 05:29:10;;;;;;;3.80;1.30;;;;;;;6.84;86.27;98069.11;89536;1277;89796;-64
2022/02/21 05:31:19;;;;;;;2.00;1.20;;;;;;;6.84;86.36;98066.86;89522;1277;95662;-64
2022/02/21 05:33:28;;;;;;;2.50;1.50;;;;;;;6.85;86.24;98071.18;89508;1277;82531;-64
2022/02/21 05:35:34;;;;;;;2.50;1.20;;;;;;;6.83;86.27;98068.55;89532;1277;81029;-64
2022/02/21 05:37:43;;;;;;;2.90;1.80;;;;;;;6.85;86.49;98060.78;89528;1277;99052;-64
2022/02/21 05:39:48;;;;;;;2.70;1.30;;;;;;;6.87;86.26;98065.70;89541;1277;88659;-63
2022/02/21 05:41:57;;;;;;;3.80;1.50;;;;;;;6.87;86.39;98066.45;89517;1277;95557;-64
2022/02/21 05:44:03;;;;;;;2.70;1.40;;;;;;;6.87;86.36;98066.55;89537;1277;80258;-66
2022/02/21 05:46:12;;;;;;;2.70;1.60;;;;;;;6.90;86.23;98065.27;89569;1277;80507;-64
2022/02/21 05:48:17;;;;;;;4.50;1.60;;;;;;;6.90;86.22;98065.80;89552;1277;98389;-65
2022/02/21 05:50:24;;;;;;;3.40;1.50;;;;;;;6.91;86.62;98060.34;89570;1277;88277;-73
2022/02/21 05:52:32;;;;;;;2.30;1.50;;;;;;;6.92;86.49;98063.55;89535;1277;95003;-74
2022/02/21 05:54:42;;;;;;;2.10;1.30;;;;;;;6.89;86.49;98060.48;89556;1277;80496;-64
2022/02/21 05:56:52;;;;;;;2.90;1.40;;;;;;;6.88;87.04;98058.88;89527;1277;82428;-64
2022/02/21 05:58:58;;;;;;;2.20;1.30;;;;;;;6.89;86.67;98051.45;89529;1277;97401;-72
2022/02/21 06:01:04;;;;;;;2.20;1.30;;;;;;;6.91;86.66;98050.05;89560;1277;88234;-72
2022/02/21 06:03:10;;;;;;;3.40;1.30;;;;;;;6.89;86.71;98047.80;89532;1277;94944;-72
2022/02/21 06:05:19;;;;;;;3.20;1.40;;;;;;;6.88;86.55;98050.17;89549;1277;81640;-63
2022/02/21 06:07:25;;;;;;;2.30;1.10;;;;;;;6.88;87.20;98037.74;89516;1277;82882;-63
2022/02/21 06:09:35;;;;;;;2.70;1.10;;;;;;;6.87;87.07;98034.41;89525;1277;98277;-64
2022/02/21 06:11:47;;;;;;;1.90;1.30;;;;;;;6.85;87.21;98032.48;89542;1277;89098;-64
2022/02/21 06:13:52;;;;;;;3.60;1.30;;;;;;;6.87;87.47;98033.61;89536;1277;95255;-65
2022/02/21 06:15:59;;;;;;;2.60;1.30;;;;;;;6.88;87.16;98039.55;89529;1277;80174;-65
2022/02/21 06:18:05;;;;;;;2.60;1.20;;;;;;;6.89;87.18;98029.34;89520;1277;81123;-65
2022/02/21 06:20:13;;;;;;;2.30;1.10;;;;;;;6.91;87.33;98033.23;89514;1277;97542;-77
2022/02/21 06:22:21;;;;;;;3.50;1.20;;;;;;;6.93;87.08;98026.45;89520;1277;88724;-77
2022/02/21 06:24:27;;;;;;;1.70;1.10;;;;;;;6.96;87.17;98033.61;89507;1277;93402;-76
2022/02/21 06:26:33;;;;;;;2.20;1.10;;;;;;;6.95;86.96;98027.00;89434;1278;79754;-77
2022/02/21 06:28:38;;;;;;;2.00;1.10;;;;;;;6.97;87.10;98026.45;89439;1279;81577;-66
2022/02/21 06:30:44;;;;;;;1.90;1.10;;;;;;;7.00;87.01;98022.52;89409;1279;98852;-66
2022/02/21 06:32:49;;;;;;;2.20;1.00;;;;;;;7.02;87.17;98016.40;89423;1279;88480;-65
2022/02/21 06:34:58;;;;;;;2.90;1.30;;;;;;;7.01;87.04;98014.70;89419;1279;95331;-65
2022/02/21 06:37:07;;;;;;;2.80;1.30;;;;;;;7.00;87.24;98009.11;89433;1279;82669;-65
2022/02/21 06:39:19;;;;;;;3.50;1.20;;;;;;;7.02;87.07;98010.33;89420;1278;82442;-75
2022/02/21 06:41:28;;;;;;;3.40;1.70;;;;;;;7.03;87.15;98010.15;89373;1278;100476;-73
2022/02/21 06:43:37;;;;;;;2.60;1.40;;;;;;;7.05;87.20;98008.73;89446;1279;88363;-74
2022/02/21 06:45:46;;;;;;;2.30;1.10;;;;;;;7.03;87.15;97993.50;89407;1279;96209;-74
2022/02/21 06:47:53;;;;;;;2.40;1.10;;;;;;;7.05;86.92;97992.39;89421;1279;79586;-75
2022/02/21 06:50:04;;;;;;;3.40;1.30;;;;;;;7.08;87.02;97990.64;89438;1279;80510;-74
2022/02/21 06:52:10;;;;;;;4.20;1.90;;;;;;;7.07;86.98;97985.52;89413;1279;98901;-73
2022/02/21 06:54:19;;;;;;;3.00;1.10;;;;;;;7.07;86.90;97982.23;89409;1279;89218;-71
2022/02/21 06:56:28;;;;;;;3.80;1.20;;;;;;;7.07;86.92;97983.86;89309;1279;94273;-76
2022/02/21 06:58:34;;;;;;;2.70;1.10;;;;;;;7.07;87.06;97979.66;89330;1279;80245;-76
2022/02/21 07:00:40;;;;;;;2.30;1.60;;;;;;;7.09;86.99;97977.77;89373;1279;82557;-77
2022/02/21 07:02:46;;;;;;;2.40;1.30;;;;;;;7.12;86.87;97983.06;89405;1279;98718;-78
2022/02/21 07:04:52;;;;;;;2.20;1.20;;;;;;;7.11;86.79;97981.89;89421;1279;87790;-66
2022/02/21 07:06:58;;;;;;;2.30;1.10;;;;;;;7.15;86.98;97982.41;89414;1279;95397;-65
2022/02/21 07:09:08;;;;;;;4.30;1.00;;;;;;;7.17;87.11;97994.00;89419;1279;81719;-65
2022/02/21 07:11:13;;;;;;;3.00;1.40;;;;;;;7.22;86.74;97987.36;89421;1279;82795;-67
2022/02/21 07:13:22;;;;;;;2.90;1.30;;;;;;;7.24;86.82;97984.81;89203;1280;100631;-67
2022/02/21 07:15:27;;;;;;;3.80;1.20;;;;;;;7.26;86.53;97984.54;89388;1279;88320;-68
2022/02/21 07:17:40;;;;;;;2.50;1.00;;;;;;;7.27;86.70;97980.10;89390;1279;92303;-68
2022/02/21 07:19:46;;;;;;;3.00;1.40;;;;;;;7.29;86.51;97983.00;89408;1279;83176;-74
2022/02/21 07:21:52;;;;;;;2.40;1.20;;;;;;;7.27;86.59;97984.02;89416;1279;82692;-74
2022/02/21 07:24:00;;;;;;;2.50;1.10;;;;;;;7.25;86.70;97987.30;89433;1279;97557;-75
2022/02/21 07:26:09;;;;;;;3.00;1.20;;;;;;;7.27;86.74;97991.34;89358;1279;90599;-78
2022/02/21 07:28:15;;;;;;;4.50;1.90;;;;;;;7.31;86.60;97994.34;89258;1279;93193;-78
2022/02/21 07:30:24;;;;;;;2.30;1.40;;;;;;;7.36;86.62;97984.53;89414;1279;81954;-66
2022/02/21 07:32:29;;;;;;;2.60;1.20;;;;;;;7.40;86.45;97983.48;89293;1279;82446;-66
2022/02/21 07:34:38;;;;;;;2.10;1.10;;;;;;;7.44;86.52;97999.13;89323;1279;97920;-67
2022/02/21 07:36:46;;;;;;;2.40;1.20;;;;;;;7.45;86.45;97988.77;89421;1278;86882;-66
2022/02/21 07:38:55;;;;;;;2.30;1.00;;;;;;;7.51;86.31;97985.96;89421;1279;95145;-66
2022/02/21 07:41:01;;;;;;;3.60;1.20;;;;;;;7.55;86.13;97979.58;89415;1279;82295;-66
2022/02/21 07:43:10;;;;;;;2.20;1.30;;;;;;;7.62;86.09;97984.93;89319;1279;82465;-65
2022/02/21 07:45:19;;;;;;;4.80;1.30;;;;;;;7.65;86.08;97978.07;89478;1277;99769;-66
2022/02/21 07:47:27;;;;;;;2.60;1.30;;;;;;;7.68;85.90;97975.28;89479;1277;89311;-66
2022/02/21 07:49:33;;;;;;;2.40;1.20;;;;;;;7.69;85.89;97969.31;89480;1277;96656;-74
2022/02/21 07:51:41;;;;;;;2.20;1.10;;;;;;;7.76;85.72;97975.38;89502;1277;82611;-74
2022/02/21 07:53:51;;;;;;;2.00;1.30;;;;;;;7.72;85.59;97973.09;89518;1277;80268;-73
2022/02/21 07:55:57;;;;;;;3.40;1.30;;;;;;;7.75;85.48;97968.33;89280;1279;97941;-74
2022/02/21 07:58:06;;;;;;;2.60;1.20;;;;;;;7.77;85.34;97965.69;89508;1278;88776;-74
2022/02/21 08:00:17;;;;;;;2.00;1.20;;;;;;;7.80;85.38;97969.52;89484;1277;94508;-74
2022/02/21 08:02:26;;;;;;;4.50;1.70;;;;;;;7.83;85.22;97971.64;89481;1277;79981;-74
2022/02/21 08:04:31;;;;;;;3.40;1.60;;;;;;;7.87;85.16;97969.42;89497;1277;82524;-75
2022/02/21 08:06:37;;;;;;;3.30;2.00;;;;;;;7.91;84.99;97968.23;89523;1278;100108;-74
2022/02/21 08:08:43;;;;;;;3.20;2.10;;;;;;;7.92;84.78;97973.64;89500;1278;87751;-65
2022/02/21 08:10:49;;;;;;;3.70;1.60;;;;;;;7.95;84.73;97978.23;89484;1277;95410;-66
2022/02/21 08:12:58;;;;;;;3.60;1.70;;;;;;;7.96;84.68;97984.70;89500;1277;81444;-66
2022/02/21 08:15:04;;;;;;;2.80;1.50;;;;;;;7.97;84.49;97991.66;89515;1278;83389;-75
2022/02/21 08:17:10;;;;;;;3.00;1.30;;;;;;;8.02;84.40;97988.48;89487;1277;98267;-74
2022/02/21 08:19:15;;;;;;;2.40;1.20;;;;;;;8.05;84.32;97989.09;89519;1277;89799;-75
2022/02/21 08:21:24;;;;;;;2.90;1.30;;;;;;;8.07;84.30;97990.26;89492;1277;96338;-74
2022/02/21 08:23:32;;;;;;;2.70;1.40;;;;;;;8.13;84.27;97994.84;89485;1277;83091;-70
2022/02/21 08:25:38;;;;;;;3.20;1.20;;;;;;;8.14;83.91;97994.07;89509;1277;82514;-65
2022/02/21 08:27:45;;;;;;;2.70;1.10;;;;;;;8.20;83.79;97992.33;89507;1277;100169;-65
2022/02/21 08:29:51;;;;;;;2.30;1.20;;;;;;;8.22;83.67;97988.93;89495;1277;87794;-74
2022/02/21 08:31:56;;;;;;;2.80;1.20;;;;;;;8.20;83.65;97989.63;89483;1277;95304;-76
2022/02/21 08:34:05;;;;;;;2.80;1.30;;;;;;;8.25;83.52;97977.88;89518;1277;80515;-75
2022/02/21 08:36:10;;;;;;;2.70;1.40;;;;;;;8.26;83.49;97965.00;89525;1277;79708;-76
2022/02/21 08:38:18;;;;;;;2.30;1.40;;;;;;;8.37;83.34;97967.85;89493;1277;99829;-75
2022/02/21 08:40:27;;;;;;;1.70;1.10;;;;;;;8.46;83.25;97969.18;89529;1278;88142;-75
2022/02/21 08:42:32;;;;;;;2.00;1.20;;;;;;;8.51;83.12;97972.80;89501;1277;95625;-75
2022/02/21 08:44:40;;;;;;;3.40;1.70;;;;;;;8.56;82.78;97972.42;89487;1278;80184;-65
2022/02/21 08:46:46;;;;;;;1.90;1.10;;;;;;;8.56;82.65;97975.77;89467;1278;80913;-65
2022/02/21 08:48:54;;;;;;;2.90;1.30;;;;;;;8.55;82.04;97971.23;89497;1278;99857;-75
2022/02/21 08:51:03;;;;;;;3.60;1.60;;;;;;;8.57;81.83;97951.73;89488;1278;88301;-75
2022/02/21 08:53:09;;;;;;;3.70;1.50;;;;;;;8.62;81.97;97953.02;89489;1278;94392;-76
2022/02/21 08:55:16;;;;;;;2.00;1.20;;;;;;;8.66;81.33;97955.33;89509;1278;79418;-75
2022/02/21 08:57:22;;;;;;;2.90;1.60;;;;;;;8.69;81.34;97957.85;89499;1278;83178;-73
2022/02/21 08:59:31;;;;;;;3.60;1.40;;;;;;;8.71;81.17;97962.10;89494;1278;99916;-75
2022/02/21 09:01:43;;;;;;;3.50;1.50;;;;;;;8.80;81.19;97971.16;89520;1278;87328;-76
2022/02/21 09:03:49;;;;;;;3.90;1.70;;;;;;;8.84;81.16;97978.37;89494;1278;93600;-76
2022/02/21 09:06:08;;;;;;;3.10;1.70;;;;;;;8.92;81.16;97982.24;89483;1277;79110;-76
2022/02/21 09:08:25;;;;;;;2.90;1.60;;;;;;;8.99;80.89;97986.85;89401;1279;84651;-75
2022/02/21 09:10:43;;;;;;;2.70;1.60;;;;;;;9.05;80.72;97997.86;89298;1281;98165;-75
2022/02/21 09:12:53;;;;;;;3.70;1.80;;;;;;;9.15;80.70;98001.89;89452;1279;88269;-75
2022/02/21 09:15:01;;;;;;;4.30;2.20;;;;;;;9.26;80.38;98004.33;89461;1279;93825;-67
2022/02/21 09:17:09;;;;;;;2.40;1.40;;;;;;;9.32;80.04;98003.38;89445;1280;79637;-65
2022/02/21 09:19:19;;;;;;;3.90;1.80;;;;;;;9.43;80.04;98002.77;89550;1277;81306;-65
2022/02/21 09:21:25;;;;;;;3.20;1.50;;;;;;;9.44;79.71;97998.55;89497;1278;99011;-65
2022/02/21 09:23:34;;;;;;;3.40;1.60;;;;;;;9.44;79.62;97999.83;89477;1278;88692;-75
2022/02/21 09:25:42;;;;;;;2.40;1.50;;;;;;;9.38;78.98;97998.23;89488;1278;95736;-77
2022/02/21 09:27:52;;;;;;;2.40;1.40;;;;;;;9.39;79.32;98006.03;89488;1278;79885;-76
2022/02/21 09:29:57;;;;;;;2.90;1.60;;;;;;;9.46;79.56;98001.54;89500;1278;82958;-65
2022/02/21 09:32:06;;;;;;;2.50;1.60;;;;;;;9.43;78.96;98002.94;89484;1278;99825;-65
2022/02/21 09:34:12;;;;;;;2.60;1.70;;;;;;;9.43;79.09;98003.05;89455;1279;88598;-65
2022/02/21 09:36:21;;;;;;;3.60;1.60;;;;;;;9.46;79.14;97999.00;89481;1278;94967;-65
2022/02/21 09:38:30;;;;;;;3.60;1.80;;;;;;;9.51;78.58;97998.88;89465;1277;79536;-65
2022/02/21 09:40:40;;;;;;;3.00;1.60;;;;;;;9.56;78.94;98000.15;89519;1278;81590;-77
2022/02/21 09:42:49;;;;;;;2.50;1.70;;;;;;;9.58;78.46;98004.83;89477;1277;100212;-76
2022/02/21 09:44:57;;;;;;;4.50;1.80;;;;;;;9.60;78.66;98009.34;89489;1278;88466;-76
2022/02/21 09:47:07;;;;;;;2.90;1.80;;;;;;;9.62;78.60;98010.30;89489;1277;94258;-78
2022/02/21 09:49:19;;;;;;;3.00;2.00;;;;;;;9.67;78.29;98010.34;89499;1278;77832;-78
2022/02/21 09:51:25;;;;;;;3.00;2.10;;;;;;;9.70;78.20;98009.53;89485;1277;82145;-77
2022/02/21 09:53:37;;;;;;;3.40;1.80;;;;;;;9.72;78.19;98005.59;89489;1277;98636;-73
2022/02/21 09:55:46;;;;;;;4.10;1.80;;;;;;;9.74;78.04;98005.45;89491;1278;88631;-74
2022/02/21 09:57:54;;;;;;;4.00;1.90;;;;;;;9.78;78.01;98001.59;89467;1278;94619;-75
2022/02/21 10:00:07;;;;;;;3.00;1.70;;;;;;;9.81;77.81;98002.06;89477;1278;80398;-64
2022/02/21 10:02:19;;;;;;;5.00;2.10;;;;;;;9.87;77.56;98007.36;89388;1279;80881;-64
2022/02/21 10:04:27;;;;;;;4.00;2.20;;;;;;;9.91;77.58;98003.61;89464;1278;98793;-78
2022/02/21 10:06:36;;;;;;;3.00;1.70;;;;;;;9.92;77.56;97996.19;89491;1277;86705;-78